Time;durP1;ratioP1;P1;durP2;ratioP2;P2;SDS_P1;SDS_P2;PMS_P1;PMS_P2;Temp;Humidity;BMP_temperature;BMP_pressure;BME280_temperature;BME280_humidity;BME280_pressure;Samples;Min_cycle;Max_cycle;Signal;HPM_P1;HPM_P2
2022/03/10 00:01:20;;;;;;;121.53;109.55;;;7.10;45.90;;;;;;4975377;28;20079;-80
2022/03/10 00:03:47;;;;;;;120.40;108.60;;;7.10;45.80;;;;;;4975253;28;20059;-81
2022/03/10 00:06:14;;;;;;;122.43;110.53;;;7.10;45.90;;;;;;4958822;28;20063;-80
2022/03/10 00:08:41;;;;;;;121.53;109.65;;;7.00;45.90;;;;;;4974369;28;20129;-80
2022/03/10 00:11:09;;;;;;;120.82;108.90;;;7.00;46.00;;;;;;4974140;28;20052;-80
2022/03/10 00:13:36;;;;;;;120.82;109.03;;;7.00;46.20;;;;;;4974341;28;20059;-80
2022/03/10 00:16:04;;;;;;;123.28;111.07;;;6.90;46.40;;;;;;4974530;28;20062;-80
2022/03/10 00:18:31;;;;;;;122.10;110.20;;;6.90;46.50;;;;;;4942013;28;20741;-80
2022/03/10 00:20:58;;;;;;;122.65;110.47;;;6.80;46.30;;;;;;4974213;28;20145;-80
2022/03/10 00:23:25;;;;;;;121.93;109.95;;;6.80;46.30;;;;;;4974367;28;20059;-80
2022/03/10 00:25:52;;;;;;;124.57;112.05;;;6.70;46.30;;;;;;4974204;28;20054;-80
2022/03/10 00:28:19;;;;;;;123.22;111.05;;;6.70;46.60;;;;;;4975650;28;20059;-80
2022/03/10 00:30:47;;;;;;;122.95;110.75;;;6.70;46.70;;;;;;4958189;28;20149;-79
2022/03/10 00:33:16;;;;;;;123.32;110.93;;;6.60;46.60;;;;;;4973825;28;20051;-80
2022/03/10 00:35:43;;;;;;;123.70;111.50;;;6.50;46.50;;;;;;4974105;28;20134;-79
2022/03/10 00:38:09;;;;;;;121.30;109.30;;;6.50;46.50;;;;;;4957906;28;20595;-79
2022/03/10 00:40:36;;;;;;;123.15;110.90;;;6.50;46.60;;;;;;4969676;28;20082;-79
2022/03/10 00:43:03;;;;;;;122.15;109.88;;;6.50;46.60;;;;;;4973823;28;20051;-79
2022/03/10 00:45:31;;;;;;;121.75;109.55;;;6.50;46.60;;;;;;4973726;28;20131;-79
2022/03/10 00:47:58;;;;;;;122.88;110.60;;;6.40;46.60;;;;;;4957548;28;20066;-79
2022/03/10 00:50:26;;;;;;;122.22;109.93;;;6.40;46.70;;;;;;4973895;28;20075;-79
2022/03/10 00:52:53;;;;;;;123.18;111.00;;;6.40;46.80;;;;;;4974138;28;20086;-80
2022/03/10 00:55:20;;;;;;;121.32;109.05;;;6.30;46.90;;;;;;4957801;28;20083;-79
2022/03/10 00:57:47;;;;;;;120.55;108.35;;;6.30;47.00;;;;;;4941499;28;20085;-79
2022/03/10 01:00:17;;;;;;;122.22;110.07;;;6.30;47.00;;;;;;4973712;28;20059;-79
2022/03/10 01:02:45;;;;;;;122.35;110.20;;;6.30;47.20;;;;;;4973276;28;20086;-79
2022/03/10 01:05:12;;;;;;;122.30;110.30;;;6.20;47.10;;;;;;4941114;28;20058;-80
2022/03/10 01:07:40;;;;;;;122.95;110.65;;;6.10;47.10;;;;;;4941610;28;20063;-80
2022/03/10 01:10:09;;;;;;;122.90;110.60;;;6.10;47.10;;;;;;4973234;28;20541;-79
2022/03/10 01:12:42;;;;;;;124.53;112.13;;;6.10;47.10;;;;;;4957639;28;20059;-79
2022/03/10 01:15:10;;;;;;;123.65;111.35;;;6.00;47.10;;;;;;4957845;28;20055;-79
2022/03/10 01:17:37;;;;;;;124.65;111.85;;;6.00;47.20;;;;;;4973100;28;20513;-80
2022/03/10 01:20:05;;;;;;;122.13;110.03;;;6.00;47.40;;;;;;4941572;28;20043;-80
2022/03/10 01:22:32;;;;;;;123.35;111.10;;;6.00;47.50;;;;;;4973615;28;20130;-79
2022/03/10 01:25:00;;;;;;;121.72;109.43;;;6.00;47.50;;;;;;4958026;28;20055;-79
2022/03/10 01:27:27;;;;;;;121.88;109.40;;;6.00;47.50;;;;;;4957919;28;20142;-79
2022/03/10 01:29:55;;;;;;;122.90;110.53;;;6.00;47.70;;;;;;4974405;28;20139;-79
2022/03/10 01:32:23;;;;;;;121.70;109.55;;;5.90;47.60;;;;;;4957951;28;20143;-79
2022/03/10 01:34:50;;;;;;;125.15;112.22;;;5.90;47.70;;;;;;4973786;28;20059;-79
2022/03/10 01:37:17;;;;;;;121.53;109.43;;;5.90;47.60;;;;;;4941684;28;20055;-79
2022/03/10 01:39:44;;;;;;;122.65;110.55;;;5.80;47.80;;;;;;4957897;28;20051;-79
2022/03/10 01:42:12;;;;;;;122.38;109.88;;;5.80;47.70;;;;;;4974008;28;20055;-79
2022/03/10 01:44:39;;;;;;;123.68;111.28;;;5.70;47.80;;;;;;4958062;28;20059;-79
2022/03/10 01:47:07;;;;;;;125.25;112.65;;;5.70;47.80;;;;;;4957327;28;20079;-79
2022/03/10 01:49:34;;;;;;;123.72;111.43;;;5.60;47.70;;;;;;4957145;28;20058;-79
2022/03/10 01:52:02;;;;;;;124.40;111.90;;;5.60;47.70;;;;;;4973640;28;20067;-79
2022/03/10 01:54:29;;;;;;;123.15;110.75;;;5.60;47.70;;;;;;4957486;28;20051;-79
2022/03/10 02:00:00;;;;;;;123.05;110.32;;;5.60;47.90;;;;;;4951470;28;20052;-79
2022/03/10 02:02:27;;;;;;;122.32;109.93;;;5.60;47.90;;;;;;4953503;28;20059;-79
2022/03/10 02:04:53;;;;;;;123.47;111.18;;;5.60;48.00;;;;;;4954607;28;20067;-79
2022/03/10 02:10:18;;;;;;;124.63;112.20;;;5.50;48.10;;;;;;4953839;28;20051;-79
2022/03/10 02:12:47;;;;;;;122.82;110.43;;;5.50;48.10;;;;;;4953986;28;20047;-79
2022/03/10 02:18:01;;;;;;;125.65;112.70;;;5.50;48.30;;;;;;4954160;28;20048;-79
2022/03/10 02:20:29;;;;;;;125.88;113.18;;;5.50;48.20;;;;;;4954368;28;20060;-79
2022/03/10 02:22:58;;;;;;;124.53;112.03;;;5.50;48.00;;;;;;4953663;28;20083;-79
2022/03/10 02:25:26;;;;;;;125.13;112.32;;;5.50;47.90;;;;;;4953975;28;20059;-79
2022/03/10 02:27:57;;;;;;;124.35;111.85;;;5.40;47.90;;;;;;4953992;28;20123;-79
2022/03/10 02:30:25;;;;;;;126.13;113.53;;;5.40;47.70;;;;;;4954016;28;20058;-79
2022/03/10 02:32:52;;;;;;;128.45;114.95;;;5.40;47.80;;;;;;4953830;28;20146;-79
2022/03/10 02:35:19;;;;;;;125.93;113.10;;;5.30;47.70;;;;;;4953673;28;20059;-79
2022/03/10 02:37:46;;;;;;;126.60;113.95;;;5.30;47.80;;;;;;4953767;28;20087;-79
2022/03/10 02:40:15;;;;;;;127.15;114.13;;;5.30;47.90;;;;;;4937721;28;20051;-79
2022/03/10 02:42:42;;;;;;;127.18;114.38;;;5.30;48.10;;;;;;4953800;28;20055;-79
2022/03/10 02:45:11;;;;;;;127.63;114.80;;;5.30;48.00;;;;;;4954223;28;20051;-79
2022/03/10 02:47:38;;;;;;;125.57;112.57;;;5.30;48.20;;;;;;4953349;28;20526;-79
2022/03/10 02:50:07;;;;;;;124.93;112.43;;;5.30;48.30;;;;;;4953759;28;20046;-79
2022/03/10 02:52:35;;;;;;;124.28;111.57;;;5.30;48.50;;;;;;4953695;28;20066;-79
2022/03/10 02:55:04;;;;;;;125.05;112.45;;;5.30;48.50;;;;;;4953660;28;20155;-79
2022/03/10 02:57:32;;;;;;;124.97;111.88;;;5.30;48.40;;;;;;4937566;28;20052;-79
2022/03/10 02:59:59;;;;;;;125.95;112.88;;;5.30;48.10;;;;;;4937406;28;20056;-79
2022/03/10 03:02:27;;;;;;;125.63;112.60;;;5.30;48.00;;;;;;4953678;28;20741;-79
2022/03/10 03:04:54;;;;;;;127.57;114.40;;;5.30;48.10;;;;;;4954033;28;20071;-79
2022/03/10 03:07:21;;;;;;;125.93;113.13;;;5.20;48.10;;;;;;4953368;28;20059;-79
2022/03/10 03:09:48;;;;;;;126.57;113.07;;;5.30;48.20;;;;;;4953451;28;20048;-79
2022/03/10 03:12:17;;;;;;;126.55;113.53;;;5.20;48.10;;;;;;4936998;28;20051;-79
2022/03/10 03:14:46;;;;;;;127.28;114.25;;;5.20;48.40;;;;;;4937406;28;20062;-79
2022/03/10 03:17:12;;;;;;;126.18;113.28;;;5.20;48.30;;;;;;4953317;28;20063;-79
2022/03/10 03:19:39;;;;;;;126.10;112.85;;;5.20;48.10;;;;;;4953381;28;20059;-79
2022/03/10 03:22:06;;;;;;;125.05;112.15;;;5.20;48.10;;;;;;4937326;28;20130;-79
2022/03/10 03:24:33;;;;;;;125.07;112.20;;;5.20;48.00;;;;;;4937214;28;20056;-79
2022/03/10 03:27:01;;;;;;;125.93;113.03;;;5.10;47.90;;;;;;4940517;28;20079;-79
2022/03/10 03:29:27;;;;;;;123.60;110.57;;;5.10;47.90;;;;;;4956823;28;20051;-79
2022/03/10 03:31:56;;;;;;;123.75;111.00;;;5.10;47.90;;;;;;4956693;28;20059;-79
2022/03/10 03:34:23;;;;;;;126.35;113.50;;;5.10;47.90;;;;;;4956464;28;20097;-79
2022/03/10 03:36:50;;;;;;;123.32;110.65;;;5.10;47.80;;;;;;4956073;28;20174;-80
2022/03/10 03:39:17;;;;;;;123.10;110.53;;;5.10;47.60;;;;;;4956531;28;20132;-80
2022/03/10 03:41:44;;;;;;;125.28;112.57;;;5.10;47.60;;;;;;4956391;28;20527;-80
2022/03/10 03:44:12;;;;;;;124.13;111.03;;;5.10;47.50;;;;;;4940642;28;20159;-80
2022/03/10 03:46:39;;;;;;;124.15;111.47;;;5.10;47.50;;;;;;4956462;28;20138;-80
2022/03/10 03:49:08;;;;;;;124.78;111.93;;;5.10;47.50;;;;;;4939547;28;20488;-80
2022/03/10 03:51:35;;;;;;;125.07;112.15;;;5.10;47.40;;;;;;4956345;28;20060;-80
2022/03/10 03:54:02;;;;;;;124.18;111.63;;;5.00;47.50;;;;;;4956011;28;20497;-80
2022/03/10 03:56:29;;;;;;;;;;;5.00;47.40;;;;;;4940659;28;20513;-80
2022/03/10 03:58:56;;;;;;;126.47;113.25;;;5.10;47.40;;;;;;4955878;28;19931;-80
2022/03/10 04:01:23;;;;;;;;;;;5.00;47.30;;;;;;4956135;28;20094;-80
2022/03/10 04:03:50;;;;;;;124.35;111.53;;;5.00;47.20;;;;;;4956675;28;19927;-80
2022/03/10 04:06:19;;;;;;;126.63;113.55;;;5.00;47.30;;;;;;4956321;28;20059;-80
2022/03/10 04:08:46;;;;;;;128.07;114.78;;;5.00;47.50;;;;;;4955999;28;20151;-80
2022/03/10 04:11:12;;;;;;;;;;;5.00;47.60;;;;;;4940380;28;20103;-80
2022/03/10 04:13:40;;;;;;;125.50;112.30;;;5.00;47.40;;;;;;4956020;28;20646;-80
2022/03/10 04:16:07;;;;;;;126.20;113.05;;;5.00;47.70;;;;;;4955976;28;20134;-80
2022/03/10 04:18:34;;;;;;;124.85;112.00;;;5.00;48.00;;;;;;4955519;28;20138;-80
2022/03/10 04:21:01;;;;;;;;;;;5.00;48.20;;;;;;4956068;28;20548;-80
2022/03/10 04:23:29;;;;;;;;;;;5.00;47.90;;;;;;4956566;28;19990;-80
2022/03/10 04:25:56;;;;;;;126.70;113.40;;;5.00;47.90;;;;;;4955942;28;20459;-80
2022/03/10 04:28:24;;;;;;;125.43;112.57;;;5.00;47.90;;;;;;4955744;28;20510;-79
2022/03/10 04:30:51;;;;;;;125.43;112.53;;;5.00;48.00;;;;;;4939679;28;20067;-80
2022/03/10 04:33:18;;;;;;;124.18;111.43;;;5.00;48.00;;;;;;4955604;28;20127;-80
2022/03/10 04:35:45;;;;;;;;;;;5.00;47.90;;;;;;4955858;28;20534;-80
2022/03/10 04:38:12;;;;;;;123.32;110.63;;;5.00;47.60;;;;;;4954700;28;19954;-80
2022/03/10 04:40:40;;;;;;;125.40;112.57;;;4.90;47.80;;;;;;4955856;28;20055;-80
2022/03/10 04:43:07;;;;;;;123.90;111.25;;;5.00;47.80;;;;;;4956844;28;20498;-79
2022/03/10 04:45:34;;;;;;;;;;;4.90;47.80;;;;;;4956069;28;20135;-79
2022/03/10 04:48:02;;;;;;;125.60;112.40;;;4.90;47.60;;;;;;4955314;28;20029;-79
2022/03/10 04:50:31;;;;;;;125.47;112.68;;;4.90;47.80;;;;;;4955050;28;20146;-80
2022/03/10 04:52:58;;;;;;;124.97;112.10;;;4.90;47.90;;;;;;4955565;28;20096;-80
2022/03/10 04:55:24;;;;;;;;;;;4.90;47.90;;;;;;4939573;28;20048;-80
2022/03/10 04:57:53;;;;;;;;;;;4.90;47.70;;;;;;4955366;28;20384;-80
2022/03/10 05:00:20;;;;;;;123.97;111.07;;;4.80;47.60;;;;;;4955499;28;20539;-80
2022/03/10 05:02:48;;;;;;;122.32;109.75;;;4.90;47.60;;;;;;4938979;28;20106;-80
2022/03/10 05:05:15;;;;;;;124.45;111.82;;;4.80;47.60;;;;;;4955167;28;20055;-80
2022/03/10 05:07:42;;;;;;;124.95;112.05;;;4.80;47.80;;;;;;4954726;28;20048;-80
2022/03/10 05:10:11;;;;;;;124.85;112.00;;;4.80;47.70;;;;;;4955045;28;20060;-80
2022/03/10 05:12:45;;;;;;;125.53;112.82;;;4.80;47.90;;;;;;4939099;28;20525;-79
2022/03/10 05:15:14;;;;;;;125.65;112.85;;;4.80;47.90;;;;;;4955055;28;20142;-80
2022/03/10 05:17:40;;;;;;;125.47;112.78;;;4.80;47.90;;;;;;4954773;28;20058;-79
2022/03/10 05:20:09;;;;;;;;;;;4.80;48.10;;;;;;4939360;28;20051;-80
2022/03/10 05:22:45;;;;;;;124.72;111.82;;;4.80;48.10;;;;;;5022800;23;20044;-80
2022/03/10 05:25:13;;;;;;;125.18;112.28;;;4.80;48.10;;;;;;5015234;28;20054;-80
2022/03/10 05:27:40;;;;;;;124.80;111.75;;;4.80;48.10;;;;;;5014817;28;20053;-80
2022/03/10 05:30:09;;;;;;;124.38;111.40;;;4.80;48.10;;;;;;5016012;28;20149;-80
2022/03/10 05:32:38;;;;;;;123.88;111.13;;;4.80;48.10;;;;;;5016339;28;20061;-80
2022/03/10 05:35:06;;;;;;;122.80;109.93;;;4.70;48.10;;;;;;5016524;28;20060;-79
2022/03/10 05:37:36;;;;;;;123.53;111.03;;;4.70;48.20;;;;;;5015684;28;20073;-80
2022/03/10 05:40:06;;;;;;;122.95;110.35;;;4.70;48.20;;;;;;5016545;28;20122;-80
2022/03/10 05:42:33;;;;;;;123.07;110.47;;;4.70;48.10;;;;;;5016051;28;20058;-80
2022/03/10 05:45:00;;;;;;;122.78;110.00;;;4.70;48.10;;;;;;5016026;28;20049;-80
2022/03/10 05:47:26;;;;;;;;;;;4.70;48.00;;;;;;5032817;28;20129;-79
2022/03/10 05:49:55;;;;;;;122.25;109.60;;;4.70;47.90;;;;;;5016156;28;19933;-80
2022/03/10 05:52:22;;;;;;;124.50;111.32;;;4.70;48.10;;;;;;4999831;28;20054;-80
2022/03/10 05:54:49;;;;;;;123.47;110.30;;;4.70;48.30;;;;;;5015537;28;20141;-79
2022/03/10 05:57:16;;;;;;;122.82;110.13;;;4.60;48.20;;;;;;5032319;28;20050;-79
2022/03/10 05:59:43;;;;;;;121.53;109.05;;;4.60;48.20;;;;;;5016014;28;20148;-80
2022/03/10 06:02:10;;;;;;;;;;;4.60;48.40;;;;;;4999975;28;20056;-79
2022/03/10 06:04:37;;;;;;;122.30;109.22;;;4.60;48.00;;;;;;5016301;28;19925;-79
2022/03/10 06:07:05;;;;;;;;;;;4.60;48.40;;;;;;5032712;28;20530;-79
2022/03/10 06:09:32;;;;;;;127.82;109.82;;;4.60;48.30;;;;;;5032548;28;19926;-80
2022/03/10 06:11:59;;;;;;;123.38;110.45;;;4.60;48.40;;;;;;4999492;28;20596;-79
2022/03/10 06:14:26;;;;;;;125.25;111.95;;;4.60;48.70;;;;;;5015393;28;20058;-80
2022/03/10 06:16:53;;;;;;;;;;;4.60;48.30;;;;;;5016322;28;20098;-80
2022/03/10 06:19:20;;;;;;;122.43;109.88;;;4.50;48.00;;;;;;5032649;28;19968;-80
2022/03/10 06:21:47;;;;;;;123.70;110.57;;;4.50;48.20;;;;;;5015931;28;20049;-80
2022/03/10 06:24:16;;;;;;;124.88;111.80;;;4.50;48.20;;;;;;4999755;28;20086;-79
2022/03/10 06:26:43;;;;;;;125.35;112.28;;;4.50;48.30;;;;;;5015382;28;20081;-80
2022/03/10 06:29:13;;;;;;;124.38;111.50;;;4.50;48.50;;;;;;4999161;28;20138;-80
2022/03/10 06:31:40;;;;;;;125.43;112.28;;;4.50;48.40;;;;;;4999657;28;20080;-79
2022/03/10 06:34:07;;;;;;;123.50;110.75;;;4.50;48.50;;;;;;5032529;28;20588;-80
2022/03/10 06:36:34;;;;;;;125.30;112.47;;;4.50;48.50;;;;;;5015680;28;20046;-80
2022/03/10 06:39:00;;;;;;;;;;;4.40;48.30;;;;;;5015707;28;20484;-79
2022/03/10 06:41:29;;;;;;;124.90;111.72;;;4.40;48.10;;;;;;5016032;28;20015;-79
2022/03/10 06:43:55;;;;;;;125.28;111.95;;;4.40;48.50;;;;;;4999328;28;20859;-80
2022/03/10 06:46:22;;;;;;;125.32;112.20;;;4.40;48.60;;;;;;5015590;28;20145;-80
2022/03/10 06:48:49;;;;;;;124.20;111.35;;;4.40;48.80;;;;;;4998835;28;20438;-80
2022/03/10 06:51:16;;;;;;;;;;;4.30;48.80;;;;;;5015381;28;20050;-80
2022/03/10 06:53:44;;;;;;;126.15;112.38;;;4.30;48.80;;;;;;5016228;28;20352;-80
2022/03/10 06:56:10;;;;;;;132.73;112.95;;;4.30;48.80;;;;;;5015279;28;20057;-80
2022/03/10 06:58:40;;;;;;;;;;;4.30;48.90;;;;;;5015618;28;20156;-80
2022/03/10 07:01:07;;;;;;;148.38;111.55;;;4.30;49.00;;;;;;5018062;28;19932;-80
2022/03/10 07:03:34;;;;;;;126.05;111.75;;;4.30;49.00;;;;;;5018851;28;20083;-80
2022/03/10 07:06:01;;;;;;;;;;;4.30;49.30;;;;;;5019352;28;20056;-80
2022/03/10 07:08:28;;;;;;;123.78;110.72;;;4.30;49.40;;;;;;5002402;28;19979;-80
2022/03/10 07:10:54;;;;;;;;;;;4.30;49.30;;;;;;5003165;28;20058;-80
2022/03/10 07:13:21;;;;;;;123.53;110.57;;;4.40;49.60;;;;;;5019238;28;19925;-80
2022/03/10 07:15:50;;;;;;;123.55;110.60;;;4.40;49.60;;;;;;5017763;28;20050;-79
2022/03/10 07:18:16;;;;;;;123.95;110.63;;;4.40;49.80;;;;;;5017507;28;20574;-81
2022/03/10 07:20:43;;;;;;;127.72;111.82;;;4.40;50.00;;;;;;5027861;28;20050;-80
2022/03/10 07:23:10;;;;;;;125.65;107.97;;;4.40;50.10;;;;;;5001806;28;20050;-81
2022/03/10 07:25:37;;;;;;;;;;;4.50;50.40;;;;;;5002078;28;20537;-80
2022/03/10 07:28:04;;;;;;;122.18;108.97;;;4.50;50.60;;;;;;5018009;28;19929;-81
2022/03/10 07:30:31;;;;;;;125.70;111.70;;;4.60;50.50;;;;;;5001790;28;20050;-80
2022/03/10 07:32:59;;;;;;;;;;;4.60;50.70;;;;;;5018266;28;20105;-80
2022/03/10 07:35:27;;;;;;;123.55;110.63;;;4.60;51.30;;;;;;5018273;28;19935;-79
2022/03/10 07:37:56;;;;;;;123.78;110.93;;;4.60;51.00;;;;;;4997672;28;20058;-79
2022/03/10 07:40:23;;;;;;;135.02;112.63;;;4.60;51.20;;;;;;5016186;28;20062;-80
2022/03/10 07:42:50;;;;;;;126.60;112.57;;;4.60;51.40;;;;;;5016521;28;20124;-77
2022/03/10 07:45:17;;;;;;;124.65;111.40;;;4.70;51.60;;;;;;5001487;28;20078;-77
2022/03/10 07:47:44;;;;;;;126.53;113.07;;;4.70;51.80;;;;;;5001092;28;20045;-77
2022/03/10 07:50:12;;;;;;;123.93;111.18;;;4.70;52.00;;;;;;5017738;28;20058;-78
2022/03/10 07:52:40;;;;;;;124.68;111.88;;;4.80;52.00;;;;;;5018035;28;20504;-80
2022/03/10 07:55:08;;;;;;;124.25;111.22;;;4.80;52.20;;;;;;5018184;28;20066;-78
2022/03/10 07:57:35;;;;;;;123.95;111.15;;;4.80;52.30;;;;;;5018170;28;20080;-79
2022/03/10 08:00:04;;;;;;;125.13;112.05;;;4.90;52.50;;;;;;5018081;28;20128;-79
2022/03/10 08:02:35;;;;;;;125.72;112.47;;;4.90;52.80;;;;;;5018544;28;20054;-79
2022/03/10 08:05:02;;;;;;;125.55;112.45;;;4.90;52.90;;;;;;5019430;28;20593;-78
2022/03/10 08:07:32;;;;;;;126.03;112.68;;;5.00;53.00;;;;;;5001070;28;20072;-78
2022/03/10 08:10:00;;;;;;;123.90;110.90;;;5.00;53.40;;;;;;5016688;28;20052;-79
2022/03/10 08:12:28;;;;;;;123.63;110.82;;;5.10;53.60;;;;;;5018010;28;20138;-79
2022/03/10 08:14:55;;;;;;;123.63;110.65;;;5.10;53.80;;;;;;5017650;28;20053;-78
2022/03/10 08:17:22;;;;;;;123.90;111.10;;;5.20;54.00;;;;;;5000865;28;20142;-79
2022/03/10 08:19:49;;;;;;;121.55;109.05;;;5.20;54.30;;;;;;5017374;28;20610;-78
2022/03/10 08:22:16;;;;;;;;;;;5.30;54.30;;;;;;5017399;28;20057;-78
2022/03/10 08:24:44;;;;;;;123.03;110.40;;;5.40;55.00;;;;;;5035851;28;19929;-78
2022/03/10 08:27:11;;;;;;;123.93;110.90;;;5.40;54.50;;;;;;5016799;28;20148;-78
2022/03/10 08:29:38;;;;;;;;;;;5.40;54.60;;;;;;5017565;28;20053;-77
2022/03/10 08:32:07;;;;;;;123.13;110.32;;;5.50;55.30;;;;;;5018394;28;19947;-78
2022/03/10 08:34:34;;;;;;;122.45;109.75;;;5.50;54.90;;;;;;5017709;28;20549;-77
2022/03/10 08:37:00;;;;;;;122.72;110.07;;;5.60;55.10;;;;;;5017374;28;20053;-78
2022/03/10 08:39:27;;;;;;;123.53;110.63;;;5.70;55.50;;;;;;5017485;28;20058;-77
2022/03/10 08:41:56;;;;;;;123.88;110.50;;;5.70;55.60;;;;;;5016961;28;20261;-78
2022/03/10 08:44:23;;;;;;;123.53;111.03;;;5.80;55.80;;;;;;5016807;28;20125;-77
2022/03/10 08:46:50;;;;;;;121.03;108.63;;;5.90;55.80;;;;;;5014949;28;20161;-78
2022/03/10 08:49:17;;;;;;;124.43;111.78;;;5.90;55.50;;;;;;5033821;28;20129;-79
2022/03/10 08:51:44;;;;;;;123.15;110.57;;;6.00;55.10;;;;;;5016932;28;20519;-79
2022/03/10 08:54:12;;;;;;;122.97;110.25;;;6.10;54.40;;;;;;4997058;28;20054;-79
2022/03/10 08:56:40;;;;;;;123.03;110.07;;;6.20;54.20;;;;;;5015789;28;20508;-77
2022/03/10 08:59:08;;;;;;;122.95;110.45;;;6.30;53.70;;;;;;5016292;28;20181;-74
2022/03/10 09:01:35;;;;;;;122.65;110.03;;;6.40;53.60;;;;;;4999947;28;20550;-78
2022/03/10 09:04:03;;;;;;;123.57;110.68;;;6.50;53.60;;;;;;5016188;28;20076;-77
2022/03/10 09:06:30;;;;;;;122.40;109.78;;;6.60;53.70;;;;;;5016514;28;20769;-77
2022/03/10 09:08:57;;;;;;;120.68;108.47;;;6.70;53.40;;;;;;5017007;28;20057;-78
2022/03/10 09:11:24;;;;;;;122.32;109.82;;;6.80;53.00;;;;;;5016566;28;20104;-78
2022/03/10 09:13:51;;;;;;;120.38;108.03;;;6.90;53.10;;;;;;5016906;28;20064;-79
2022/03/10 09:16:21;;;;;;;121.25;108.97;;;6.90;53.10;;;;;;5016588;28;20447;-77
2022/03/10 09:18:49;;;;;;;122.60;109.93;;;7.00;53.20;;;;;;5015922;28;20054;-77
2022/03/10 09:21:16;;;;;;;121.80;109.32;;;7.10;53.40;;;;;;5016930;28;20057;-78
2022/03/10 09:23:43;;;;;;;122.63;110.25;;;7.20;53.00;;;;;;4999378;28;20144;-78
2022/03/10 09:26:10;;;;;;;123.10;110.53;;;7.30;52.90;;;;;;5007576;28;20501;-79
2022/03/10 09:28:37;;;;;;;121.05;108.50;;;7.40;53.30;;;;;;4998416;28;20080;-79
2022/03/10 09:31:04;;;;;;;122.90;110.50;;;7.50;53.20;;;;;;5016114;28;20050;-78
2022/03/10 09:33:32;;;;;;;123.00;110.38;;;7.50;53.00;;;;;;5016560;28;20050;-78
2022/03/10 09:36:00;;;;;;;122.47;109.88;;;7.70;53.10;;;;;;5016153;28;20432;-79
2022/03/10 09:38:27;;;;;;;122.47;109.82;;;7.70;53.30;;;;;;4999516;28;20056;-77
2022/03/10 09:40:54;;;;;;;124.38;111.53;;;7.80;53.00;;;;;;5015925;28;20058;-78
2022/03/10 09:43:22;;;;;;;121.72;109.43;;;7.90;52.70;;;;;;5014560;28;20050;-78
2022/03/10 09:45:51;;;;;;;121.78;109.60;;;8.10;52.60;;;;;;4999074;28;20096;-78
2022/03/10 09:51:02;;;;;;;123.93;111.43;;;8.30;51.50;;;;;;5011075;28;20054;-78
2022/03/10 09:53:31;;;;;;;126.95;114.05;;;8.50;51.70;;;;;;5014754;28;20108;-78
2022/03/10 09:55:58;;;;;;;121.18;109.15;;;8.60;51.00;;;;;;5014051;28;20101;-78
2022/03/10 09:58:25;;;;;;;123.00;110.35;;;8.70;50.70;;;;;;5014379;28;20523;-78
2022/03/10 10:00:59;;;;;;;124.10;111.90;;;8.80;50.80;;;;;;4994846;28;20521;-78
2022/03/10 10:03:26;;;;;;;121.43;109.18;;;8.90;50.80;;;;;;5001934;28;20057;-78
2022/03/10 10:05:58;;;;;;;124.63;111.55;;;9.00;50.60;;;;;;5012300;28;20050;-79
2022/03/10 10:08:27;;;;;;;125.55;113.00;;;9.10;50.60;;;;;;5013734;28;20053;-78
2022/03/10 10:10:56;;;;;;;121.57;109.13;;;9.30;49.90;;;;;;5014372;28;20056;-78
2022/03/10 10:13:28;;;;;;;122.35;110.15;;;9.40;50.00;;;;;;5028543;28;20054;-78
2022/03/10 10:15:58;;;;;;;122.72;110.70;;;9.50;50.30;;;;;;5013732;28;20527;-78
2022/03/10 10:18:25;;;;;;;123.90;111.68;;;9.60;50.50;;;;;;5014627;28;20057;-78
2022/03/10 10:20:53;;;;;;;123.70;111.45;;;9.70;50.40;;;;;;5029223;28;20061;-78
2022/03/10 10:23:22;;;;;;;124.35;112.03;;;9.80;51.20;;;;;;5033372;28;21048;-78
2022/03/10 10:25:52;;;;;;;125.90;113.30;;;9.90;51.50;;;;;;5014512;28;20116;-78
2022/03/10 10:28:23;;;;;;;126.70;114.22;;;10.00;50.90;;;;;;5013916;28;20080;-77
2022/03/10 10:30:58;;;;;;;125.18;112.88;;;10.10;51.30;;;;;;5033028;28;20060;-78
2022/03/10 10:33:26;;;;;;;125.03;112.80;;;10.20;50.60;;;;;;4998125;28;20069;-78
2022/03/10 10:36:11;;;;;;;128.20;115.72;;;10.30;50.40;;;;;;5016327;28;20050;-79
2022/03/10 10:38:37;;;;;;;125.97;113.15;;;10.40;50.20;;;;;;5032058;28;20559;-78
2022/03/10 10:41:17;;;;;;;125.50;113.35;;;10.50;50.40;;;;;;5010835;28;20060;-78
2022/03/10 10:43:47;;;;;;;123.70;111.50;;;10.70;49.20;;;;;;5035966;28;20056;-79
2022/03/10 10:46:26;;;;;;;130.57;117.60;;;10.80;49.00;;;;;;5079788;22;20053;-79
2022/03/10 10:48:53;;;;;;;127.60;115.07;;;10.90;48.80;;;;;;4999432;28;20140;-80
2022/03/10 10:51:29;;;;;;;126.93;114.07;;;11.10;49.20;;;;;;5018280;28;20065;-79
2022/03/10 10:53:56;;;;;;;125.50;113.22;;;11.20;48.50;;;;;;5017819;28;20050;-80
2022/03/10 10:56:25;;;;;;;134.45;121.75;;;11.30;49.00;;;;;;5010120;28;20049;-79
2022/03/10 10:58:54;;;;;;;126.07;113.88;;;11.40;49.50;;;;;;5034273;28;20154;-79
2022/03/10 11:01:32;;;;;;;126.07;113.82;;;11.50;49.60;;;;;;5018292;28;20092;-79
2022/03/10 11:03:59;;;;;;;125.22;113.15;;;11.60;50.80;;;;;;5018672;28;20597;-79
2022/03/10 11:06:26;;;;;;;130.15;115.70;;;11.70;49.90;;;;;;5018342;28;20130;-78
2022/03/10 11:08:54;;;;;;;126.55;113.80;;;11.80;49.70;;;;;;5016537;28;20054;-78
2022/03/10 11:11:21;;;;;;;127.05;114.85;;;11.90;49.30;;;;;;5017760;28;20054;-80
2022/03/10 11:13:50;;;;;;;126.47;114.38;;;12.10;49.40;;;;;;5018178;28;20538;-80
2022/03/10 11:16:18;;;;;;;126.47;114.57;;;12.20;49.30;;;;;;5002091;28;20054;-79
2022/03/10 11:18:49;;;;;;;125.63;113.78;;;12.30;49.30;;;;;;5017675;28;20056;-78
2022/03/10 11:21:34;;;;;;;128.65;116.15;;;12.40;49.70;;;;;;5016611;28;20069;-79
2022/03/10 11:24:12;;;;;;;125.82;113.70;;;12.50;49.90;;;;;;5007764;28;20078;-79
2022/03/10 11:26:46;;;;;;;126.97;114.80;;;12.70;48.30;;;;;;5018050;28;20078;-79
2022/03/10 11:29:22;;;;;;;127.15;114.95;;;12.70;48.00;;;;;;5016986;28;20050;-79
2022/03/10 11:31:50;;;;;;;128.20;115.93;;;12.90;47.70;;;;;;5018434;28;20050;-79
2022/03/10 11:34:44;;;;;;;127.40;115.28;;;13.00;47.40;;;;;;5018564;28;20428;-79
2022/03/10 11:37:12;;;;;;;130.93;118.30;;;13.20;47.50;;;;;;5036229;28;20567;-79
2022/03/10 11:39:54;;;;;;;129.32;116.78;;;13.20;48.40;;;;;;5002362;28;20042;-79
2022/03/10 11:42:29;;;;;;;129.63;117.13;;;13.40;47.00;;;;;;5018456;28;20053;-79
2022/03/10 11:45:11;;;;;;;128.93;116.30;;;13.50;47.10;;;;;;5001612;28;20546;-79
2022/03/10 11:47:40;;;;;;;132.30;119.68;;;13.60;47.00;;;;;;5017209;28;20146;-79
2022/03/10 11:50:26;;;;;;;131.27;118.85;;;13.70;47.00;;;;;;5035687;28;20058;-79
2022/03/10 11:52:55;;;;;;;131.65;119.25;;;13.80;46.10;;;;;;5015014;28;20133;-79
2022/03/10 11:55:23;;;;;;;132.73;120.03;;;14.00;45.90;;;;;;5000891;28;20050;-79
2022/03/10 11:58:04;;;;;;;132.82;120.18;;;14.10;44.70;;;;;;5017787;28;20060;-79
2022/03/10 12:00:50;;;;;;;133.63;120.93;;;14.20;43.30;;;;;;5016833;28;20053;-81
2022/03/10 12:03:29;;;;;;;132.77;120.32;;;14.30;43.60;;;;;;5015418;28;20524;-81
2022/03/10 12:05:58;;;;;;;132.02;119.53;;;14.40;43.40;;;;;;5016503;28;20060;-81
2022/03/10 12:08:27;;;;;;;134.30;121.35;;;14.50;43.10;;;;;;5016085;28;20054;-81
2022/03/10 12:10:54;;;;;;;135.60;122.95;;;14.60;43.80;;;;;;5017016;28;20133;-81
2022/03/10 12:13:23;;;;;;;135.45;121.75;;;14.70;43.70;;;;;;5017055;28;20535;-81
2022/03/10 12:15:52;;;;;;;136.15;123.30;;;14.80;44.00;;;;;;5000918;28;20050;-81
2022/03/10 12:18:30;;;;;;;136.43;123.55;;;14.90;42.30;;;;;;5014223;28;20050;-81
2022/03/10 12:20:58;;;;;;;134.77;122.18;;;14.90;42.20;;;;;;5013792;28;20508;-79
2022/03/10 12:23:27;;;;;;;134.77;122.15;;;15.00;42.40;;;;;;5017707;28;20053;-79
2022/03/10 12:25:58;;;;;;;132.50;119.97;;;15.10;42.50;;;;;;5017647;28;20046;-81
2022/03/10 12:28:29;;;;;;;135.15;122.88;;;15.20;42.60;;;;;;5001067;28;20089;-82
2022/03/10 12:31:12;;;;;;;135.73;122.60;;;15.40;42.00;;;;;;5017631;28;20479;-81
2022/03/10 12:33:46;;;;;;;134.52;122.13;;;15.50;41.10;;;;;;4996878;28;20065;-80
2022/03/10 12:36:15;;;;;;;133.13;120.63;;;15.60;41.00;;;;;;5013145;28;20177;-81
2022/03/10 12:38:45;;;;;;;133.75;121.03;;;15.60;41.70;;;;;;5015788;28;20146;-81
2022/03/10 12:41:14;;;;;;;135.95;123.68;;;15.70;41.40;;;;;;5014419;28;20058;-79